sensor_id;sensor_type;location;lat;lon;timestamp;pressure;altitude;pressure_sealevel;temperature;humidity
7105;BME280;3594;42.152;24.714;2023-02-23T00:00:08;-24041.44;;;8.04;nan
7105;BME280;3594;42.152;24.714;2023-02-23T00:02:46;-24033.50;;;7.75;nan
7105;BME280;3594;42.152;24.714;2023-02-23T00:05:12;-24038.47;;;7.93;nan
7105;BME280;3594;42.152;24.714;2023-02-23T00:07:37;-24037.75;;;7.90;nan
7105;BME280;3594;42.152;24.714;2023-02-23T00:10:03;-24034.91;;;7.80;nan
7105;BME280;3594;42.152;24.714;2023-02-23T00:12:29;-24037.03;;;7.88;nan
7105;BME280;3594;42.152;24.714;2023-02-23T00:14:54;-24036.06;;;7.84;nan
7105;BME280;3594;42.152;24.714;2023-02-23T00:17:19;-24041.16;;;8.03;nan
7105;BME280;3594;42.152;24.714;2023-02-23T00:19:48;-24032.94;;;7.73;nan
7105;BME280;3594;42.152;24.714;2023-02-23T00:22:13;-24041.72;;;8.05;nan
7105;BME280;3594;42.152;24.714;2023-02-23T00:24:39;-24042.28;;;8.07;nan
7105;BME280;3594;42.152;24.714;2023-02-23T00:27:06;-24033.06;;;7.74;nan
7105;BME280;3594;42.152;24.714;2023-02-23T00:29:32;-24043.13;;;8.10;nan
7105;BME280;3594;42.152;24.714;2023-02-23T00:32:03;-24037.19;;;7.88;nan
7105;BME280;3594;42.152;24.714;2023-02-23T00:34:28;-24040.72;;;8.01;nan
7105;BME280;3594;42.152;24.714;2023-02-23T00:36:54;-24039.31;;;7.96;nan
7105;BME280;3594;42.152;24.714;2023-02-23T00:39:20;-24039.88;;;7.98;nan
7105;BME280;3594;42.152;24.714;2023-02-23T00:41:48;-24036.06;;;7.84;nan
7105;BME280;3594;42.152;24.714;2023-02-23T00:44:14;-24044.00;;;8.13;nan
7105;BME280;3594;42.152;24.714;2023-02-23T00:46:40;-24041.44;;;8.04;nan
7105;BME280;3594;42.152;24.714;2023-02-23T00:49:08;-24041.56;;;8.04;nan
7105;BME280;3594;42.152;24.714;2023-02-23T00:51:35;-24032.50;;;7.72;nan
7105;BME280;3594;42.152;24.714;2023-02-23T00:54:02;-24041.28;;;8.03;nan
7105;BME280;3594;42.152;24.714;2023-02-23T00:56:28;-24036.06;;;7.84;nan
7105;BME280;3594;42.152;24.714;2023-02-23T00:58:53;-24039.44;;;7.96;nan
7105;BME280;3594;42.152;24.714;2023-02-23T01:01:19;-24039.72;;;7.97;nan
7105;BME280;3594;42.152;24.714;2023-02-23T01:03:45;-24030.66;;;7.65;nan
7105;BME280;3594;42.152;24.714;2023-02-23T01:06:13;-24032.22;;;7.71;nan
7105;BME280;3594;42.152;24.714;2023-02-23T01:08:45;-24032.22;;;7.71;nan
7105;BME280;3594;42.152;24.714;2023-02-23T01:11:18;-24037.31;;;7.89;nan
7105;BME280;3594;42.152;24.714;2023-02-23T01:13:46;-24032.78;;;7.73;nan
7105;BME280;3594;42.152;24.714;2023-02-23T01:16:13;-24024.88;;;7.44;nan
7105;BME280;3594;42.152;24.714;2023-02-23T01:18:40;-24026.41;;;7.50;nan
7105;BME280;3594;42.152;24.714;2023-02-23T01:21:23;-24030.81;;;7.66;nan
7105;BME280;3594;42.152;24.714;2023-02-23T01:23:51;-23903.72;;;3.14;nan
7105;BME280;3594;42.152;24.714;2023-02-23T01:26:18;-24032.66;;;7.72;nan
7105;BME280;3594;42.152;24.714;2023-02-23T01:28:52;-24032.09;;;7.70;nan
7105;BME280;3594;42.152;24.714;2023-02-23T01:31:18;-24007.13;;;6.81;nan
7105;BME280;3594;42.152;24.714;2023-02-23T01:33:44;-24033.38;;;7.75;nan
7105;BME280;3594;42.152;24.714;2023-02-23T01:36:11;-24031.09;;;7.67;nan
7105;BME280;3594;42.152;24.714;2023-02-23T01:38:37;-24026.69;;;7.51;nan
7105;BME280;3594;42.152;24.714;2023-02-23T01:41:03;-24023.88;;;7.41;nan
7105;BME280;3594;42.152;24.714;2023-02-23T01:43:28;-24029.97;;;7.63;nan
7105;BME280;3594;42.152;24.714;2023-02-23T01:45:55;-24023.72;;;7.40;nan
7105;BME280;3594;42.152;24.714;2023-02-23T01:48:25;-24026.00;;;7.48;nan
7105;BME280;3594;42.152;24.714;2023-02-23T01:53:19;-24018.75;;;7.23;nan
7105;BME280;3594;42.152;24.714;2023-02-23T01:55:49;-24024.88;;;7.44;nan
7105;BME280;3594;42.152;24.714;2023-02-23T01:58:20;-24017.06;;;7.17;nan
7105;BME280;3594;42.152;24.714;2023-02-23T02:00:50;-24015.94;;;7.13;nan
7105;BME280;3594;42.152;24.714;2023-02-23T02:03:25;-24022.44;;;7.36;nan
7105;BME280;3594;42.152;24.714;2023-02-23T02:05:52;-24015.66;;;7.12;nan
7105;BME280;3594;42.152;24.714;2023-02-23T02:08:19;-24001.47;;;6.61;nan
7105;BME280;3594;42.152;24.714;2023-02-23T02:10:47;-24019.19;;;7.24;nan
7105;BME280;3594;42.152;24.714;2023-02-23T02:13:22;-24015.94;;;7.13;nan
7105;BME280;3594;42.152;24.714;2023-02-23T02:16:08;-24019.63;;;7.26;nan
7105;BME280;3594;42.152;24.714;2023-02-23T02:30:29;-24017.78;;;7.19;nan
7105;BME280;3594;42.152;24.714;2023-02-23T02:41:12;-24006.28;;;6.78;nan
7105;BME280;3594;42.152;24.714;2023-02-23T02:44:04;-24012.25;;;6.99;nan
7105;BME280;3594;42.152;24.714;2023-02-23T02:46:37;-24010.13;;;6.92;nan
7105;BME280;3594;42.152;24.714;2023-02-23T02:51:56;-24006.84;;;6.80;nan
7105;BME280;3594;42.152;24.714;2023-02-23T02:54:29;-24004.72;;;6.73;nan
7105;BME280;3594;42.152;24.714;2023-02-23T02:57:00;-23993.94;;;6.34;nan
7105;BME280;3594;42.152;24.714;2023-02-23T02:59:26;-23992.09;;;6.28;nan
7105;BME280;3594;42.152;24.714;2023-02-23T03:02:16;-23989.09;;;6.17;nan
7105;BME280;3594;42.152;24.714;2023-02-23T03:05:00;-23988.69;;;6.15;nan
7105;BME280;3594;42.152;24.714;2023-02-23T03:10:56;-23993.50;;;6.33;nan
7105;BME280;3594;42.152;24.714;2023-02-23T03:19:27;-23988.69;;;6.15;nan
7105;BME280;3594;42.152;24.714;2023-02-23T03:25:20;-23983.13;;;5.96;nan
7105;BME280;3594;42.152;24.714;2023-02-23T03:28:15;-23975.88;;;5.70;nan
7105;BME280;3594;42.152;24.714;2023-02-23T03:31:14;-23982.00;;;5.92;nan
7105;BME280;3594;42.152;24.714;2023-02-23T03:34:13;-23971.75;;;5.55;nan
7105;BME280;3594;42.152;24.714;2023-02-23T03:37:05;-23952.56;;;4.87;nan
7105;BME280;3594;42.152;24.714;2023-02-23T03:40:01;-23972.19;;;5.57;nan
7105;BME280;3594;42.152;24.714;2023-02-23T03:42:48;-23973.19;;;5.60;nan
7105;BME280;3594;42.152;24.714;2023-02-23T03:45:35;-23973.19;;;5.60;nan
7105;BME280;3594;42.152;24.714;2023-02-23T03:48:20;-23971.34;;;5.54;nan
7105;BME280;3594;42.152;24.714;2023-02-23T03:51:07;-23979.72;;;5.84;nan
7105;BME280;3594;42.152;24.714;2023-02-23T03:54:10;-23970.06;;;5.49;nan
7105;BME280;3594;42.152;24.714;2023-02-23T03:56:58;-23975.75;;;5.69;nan
7105;BME280;3594;42.152;24.714;2023-02-23T03:59:52;-23969.06;;;5.46;nan
7105;BME280;3594;42.152;24.714;2023-02-23T04:02:38;-23976.47;;;5.72;nan
7105;BME280;3594;42.152;24.714;2023-02-23T04:05:24;-23975.47;;;5.68;nan
7105;BME280;3594;42.152;24.714;2023-02-23T04:08:13;-23966.22;;;5.36;nan
7105;BME280;3594;42.152;24.714;2023-02-23T04:11:04;-23970.06;;;5.49;nan
7105;BME280;3594;42.152;24.714;2023-02-23T04:13:53;-23962.53;;;5.22;nan
7105;BME280;3594;42.152;24.714;2023-02-23T04:16:22;-23834.44;;;0.68;nan
7105;BME280;3594;42.152;24.714;2023-02-23T04:18:48;-23955.69;;;4.98;nan
7105;BME280;3594;42.152;24.714;2023-02-23T04:21:13;-23940.03;;;4.42;nan
7105;BME280;3594;42.152;24.714;2023-02-23T04:23:39;-23948.16;;;4.71;nan
7105;BME280;3594;42.152;24.714;2023-02-23T04:26:06;-23939.34;;;4.40;nan
7105;BME280;3594;42.152;24.714;2023-02-23T04:28:32;-23941.03;;;4.46;nan
7105;BME280;3594;42.152;24.714;2023-02-23T04:30:57;-23945.16;;;4.61;nan
7105;BME280;3594;42.152;24.714;2023-02-23T04:33:23;-23933.50;;;4.19;nan
7105;BME280;3594;42.152;24.714;2023-02-23T04:35:54;-23943.19;;;4.54;nan
7105;BME280;3594;42.152;24.714;2023-02-23T04:38:20;-23936.34;;;4.29;nan
7105;BME280;3594;42.152;24.714;2023-02-23T04:40:46;-23935.63;;;4.27;nan
7105;BME280;3594;42.152;24.714;2023-02-23T04:43:12;-23933.78;;;4.20;nan
7105;BME280;3594;42.152;24.714;2023-02-23T04:45:37;-23932.34;;;4.15;nan
7105;BME280;3594;42.152;24.714;2023-02-23T04:48:03;-23923.53;;;3.84;nan
7105;BME280;3594;42.152;24.714;2023-02-23T04:50:28;-23912.25;;;3.44;nan
7105;BME280;3594;42.152;24.714;2023-02-23T04:52:54;-23927.50;;;3.98;nan
7105;BME280;3594;42.152;24.714;2023-02-23T04:55:23;-23917.81;;;3.64;nan
7105;BME280;3594;42.152;24.714;2023-02-23T04:57:50;-23907.72;;;3.28;nan
7105;BME280;3594;42.152;24.714;2023-02-23T05:00:17;-23917.97;;;3.64;nan
7105;BME280;3594;42.152;24.714;2023-02-23T05:02:43;-23915.53;;;3.55;nan
7105;BME280;3594;42.152;24.714;2023-02-23T05:05:09;-23927.66;;;3.98;nan
7105;BME280;3594;42.152;24.714;2023-02-23T05:07:35;-23926.38;;;3.94;nan
7105;BME280;3594;42.152;24.714;2023-02-23T05:10:01;-23913.84;;;3.49;nan
7105;BME280;3594;42.152;24.714;2023-02-23T05:12:26;-23916.53;;;3.59;nan
7105;BME280;3594;42.152;24.714;2023-02-23T05:14:52;-23918.25;;;3.65;nan
7105;BME280;3594;42.152;24.714;2023-02-23T05:17:17;-23920.25;;;3.72;nan
7105;BME280;3594;42.152;24.714;2023-02-23T05:19:43;-23925.81;;;3.92;nan
7105;BME280;3594;42.152;24.714;2023-02-23T05:22:08;-23924.38;;;3.87;nan
7105;BME280;3594;42.152;24.714;2023-02-23T05:24:40;-23922.97;;;3.82;nan
7105;BME280;3594;42.152;24.714;2023-02-23T05:27:09;-23926.53;;;3.94;nan
7105;BME280;3594;42.152;24.714;2023-02-23T05:29:34;-23925.22;;;3.90;nan
7105;BME280;3594;42.152;24.714;2023-02-23T05:32:00;-23920.97;;;3.75;nan
7105;BME280;3594;42.152;24.714;2023-02-23T05:34:25;-23926.81;;;3.95;nan
7105;BME280;3594;42.152;24.714;2023-02-23T05:36:51;-23919.69;;;3.70;nan
7105;BME280;3594;42.152;24.714;2023-02-23T05:39:18;-23928.09;;;4.00;nan
7105;BME280;3594;42.152;24.714;2023-02-23T05:41:43;-23920.53;;;3.73;nan
7105;BME280;3594;42.152;24.714;2023-02-23T05:44:09;-23932.34;;;4.15;nan
7105;BME280;3594;42.152;24.714;2023-02-23T05:46:34;-23926.09;;;3.93;nan
7105;BME280;3594;42.152;24.714;2023-02-23T05:49:00;-23935.34;;;4.26;nan
7105;BME280;3594;42.152;24.714;2023-02-23T05:51:28;-23932.63;;;4.16;nan
7105;BME280;3594;42.152;24.714;2023-02-23T05:53:53;-23930.06;;;4.07;nan
7105;BME280;3594;42.152;24.714;2023-02-23T05:56:19;-23938.19;;;4.36;nan
7105;BME280;3594;42.152;24.714;2023-02-23T05:58:53;-23940.47;;;4.44;nan
7105;BME280;3594;42.152;24.714;2023-02-23T06:01:19;-23943.19;;;4.54;nan
7105;BME280;3594;42.152;24.714;2023-02-23T06:03:45;-23944.59;;;4.59;nan
7105;BME280;3594;42.152;24.714;2023-02-23T06:06:11;-23957.69;;;5.05;nan
7105;BME280;3594;42.152;24.714;2023-02-23T06:08:38;-23951.00;;;4.81;nan
7105;BME280;3594;42.152;24.714;2023-02-23T06:11:04;-23964.22;;;5.28;nan
7105;BME280;3594;42.152;24.714;2023-02-23T06:13:30;-23967.66;;;5.41;nan
7105;BME280;3594;42.152;24.714;2023-02-23T06:15:56;-23969.78;;;5.48;nan
7105;BME280;3594;42.152;24.714;2023-02-23T06:18:22;-23967.22;;;5.39;nan
7105;BME280;3594;42.152;24.714;2023-02-23T06:20:47;-23977.88;;;5.77;nan
7105;BME280;3594;42.152;24.714;2023-02-23T06:23:13;-23984.28;;;6.00;nan
7105;BME280;3594;42.152;24.714;2023-02-23T06:25:40;-23979.00;;;5.81;nan
7105;BME280;3594;42.152;24.714;2023-02-23T06:28:06;-23979.88;;;5.84;nan
7105;BME280;3594;42.152;24.714;2023-02-23T06:30:33;-23985.28;;;6.03;nan
7105;BME280;3594;42.152;24.714;2023-02-23T06:32:59;-23991.22;;;6.25;nan
7105;BME280;3594;42.152;24.714;2023-02-23T06:35:24;-23999.19;;;6.53;nan
7105;BME280;3594;42.152;24.714;2023-02-23T06:37:51;-24000.31;;;6.57;nan
7105;BME280;3594;42.152;24.714;2023-02-23T06:40:17;-24006.56;;;6.79;nan
7105;BME280;3594;42.152;24.714;2023-02-23T06:42:43;-24008.00;;;6.84;nan
7105;BME280;3594;42.152;24.714;2023-02-23T06:45:09;-24004.88;;;6.73;nan
7105;BME280;3594;42.152;24.714;2023-02-23T06:47:35;-24021.47;;;7.32;nan
7105;BME280;3594;42.152;24.714;2023-02-23T06:50:00;-24018.91;;;7.23;nan
7105;BME280;3594;42.152;24.714;2023-02-23T06:52:28;-24021.16;;;7.31;nan
7105;BME280;3594;42.152;24.714;2023-02-23T06:54:53;-24031.25;;;7.67;nan
7105;BME280;3594;42.152;24.714;2023-02-23T06:57:19;-24029.81;;;7.62;nan
7105;BME280;3594;42.152;24.714;2023-02-23T06:59:45;-24044.84;;;8.16;nan
7105;BME280;3594;42.152;24.714;2023-02-23T07:02:12;-24046.69;;;8.22;nan
7105;BME280;3594;42.152;24.714;2023-02-23T07:04:38;-24049.38;;;8.32;nan
7105;BME280;3594;42.152;24.714;2023-02-23T07:07:03;-24054.75;;;8.51;nan
7105;BME280;3594;42.152;24.714;2023-02-23T07:09:29;-24059.13;;;8.67;nan
7105;BME280;3594;42.152;24.714;2023-02-23T07:11:55;-24062.38;;;8.78;nan
7105;BME280;3594;42.152;24.714;2023-02-23T07:14:20;-24066.63;;;8.94;nan
7105;BME280;3594;42.152;24.714;2023-02-23T07:16:46;-24071.59;;;9.11;nan
7105;BME280;3594;42.152;24.714;2023-02-23T07:21:36;-24084.03;;;9.56;nan
7105;BME280;3594;42.152;24.714;2023-02-23T07:24:02;-24079.78;;;9.41;nan
7105;BME280;3594;42.152;24.714;2023-02-23T07:26:30;-24081.91;;;9.48;nan
7105;BME280;3594;42.152;24.714;2023-02-23T07:28:58;-24090.25;;;9.78;nan
7105;BME280;3594;42.152;24.714;2023-02-23T07:31:23;-24090.94;;;9.81;nan
7105;BME280;3594;42.152;24.714;2023-02-23T07:33:50;-24087.69;;;9.69;nan
7105;BME280;3594;42.152;24.714;2023-02-23T07:36:17;-24096.88;;;10.02;nan
7105;BME280;3594;42.152;24.714;2023-02-23T07:38:42;-24100.25;;;10.14;nan
7105;BME280;3594;42.152;24.714;2023-02-23T07:41:07;-24106.19;;;10.35;nan
7105;BME280;3594;42.152;24.714;2023-02-23T07:43:33;-24099.97;;;10.13;nan
7105;BME280;3594;42.152;24.714;2023-02-23T07:45:59;-24084.44;;;9.57;nan
7105;BME280;3594;42.152;24.714;2023-02-23T07:48:25;-24086.84;;;9.66;nan
7105;BME280;3594;42.152;24.714;2023-02-23T07:50:51;-24093.47;;;9.90;nan
7105;BME280;3594;42.152;24.714;2023-02-23T07:53:17;-24097.44;;;10.04;nan
7105;BME280;3594;42.152;24.714;2023-02-23T07:55:42;-24093.34;;;9.89;nan
7105;BME280;3594;42.152;24.714;2023-02-23T07:58:08;-24103.53;;;10.26;nan
7105;BME280;3594;42.152;24.714;2023-02-23T08:00:35;-24106.19;;;10.35;nan
7105;BME280;3594;42.152;24.714;2023-02-23T08:03:05;-24099.97;;;10.13;nan
7105;BME280;3594;42.152;24.714;2023-02-23T08:05:30;-24099.28;;;10.10;nan
7105;BME280;3594;42.152;24.714;2023-02-23T08:07:57;-24107.63;;;10.40;nan
7105;BME280;3594;42.152;24.714;2023-02-23T08:10:22;-24102.09;;;10.21;nan
7105;BME280;3594;42.152;24.714;2023-02-23T08:12:48;-24099.00;;;10.09;nan
7105;BME280;3594;42.152;24.714;2023-02-23T08:15:13;-24096.72;;;10.01;nan
7105;BME280;3594;42.152;24.714;2023-02-23T08:17:39;-24094.19;;;9.92;nan
7105;BME280;3594;42.152;24.714;2023-02-23T08:20:07;-24104.50;;;10.29;nan
7105;BME280;3594;42.152;24.714;2023-02-23T08:22:33;-24110.44;;;10.50;nan
7105;BME280;3594;42.152;24.714;2023-02-23T08:24:59;-24108.16;;;10.42;nan
7105;BME280;3594;42.152;24.714;2023-02-23T08:27:26;-24101.41;;;10.18;nan
7105;BME280;3594;42.152;24.714;2023-02-23T08:29:55;-24103.94;;;10.27;nan
7105;BME280;3594;42.152;24.714;2023-02-23T08:32:21;-24101.69;;;10.19;nan
7105;BME280;3594;42.152;24.714;2023-02-23T08:34:46;-24105.78;;;10.34;nan
7105;BME280;3594;42.152;24.714;2023-02-23T08:37:12;-24110.72;;;10.51;nan
7105;BME280;3594;42.152;24.714;2023-02-23T08:39:37;-24111.97;;;10.56;nan
7105;BME280;3594;42.152;24.714;2023-02-23T08:42:03;-24118.34;;;10.79;nan
7105;BME280;3594;42.152;24.714;2023-02-23T08:44:28;-24119.19;;;10.82;nan
7105;BME280;3594;42.152;24.714;2023-02-23T08:46:54;-24131.03;;;11.24;nan
7105;BME280;3594;42.152;24.714;2023-02-23T08:49:20;-24120.03;;;10.85;nan
7105;BME280;3594;42.152;24.714;2023-02-23T08:51:46;-24129.19;;;11.18;nan
7105;BME280;3594;42.152;24.714;2023-02-23T08:54:12;-24137.22;;;11.46;nan
7105;BME280;3594;42.152;24.714;2023-02-23T08:56:43;-24140.75;;;11.59;nan
7105;BME280;3594;42.152;24.714;2023-02-23T08:59:10;-24141.72;;;11.63;nan
7105;BME280;3594;42.152;24.714;2023-02-23T09:01:36;-24130.19;;;11.21;nan
7105;BME280;3594;42.152;24.714;2023-02-23T09:04:02;-24131.72;;;11.27;nan
7105;BME280;3594;42.152;24.714;2023-02-23T09:06:28;-24125.38;;;11.04;nan
7105;BME280;3594;42.152;24.714;2023-02-23T09:08:54;-24128.47;;;11.15;nan
7105;BME280;3594;42.152;24.714;2023-02-23T09:11:20;-24138.63;;;11.51;nan
7105;BME280;3594;42.152;24.714;2023-02-23T09:13:46;-24145.13;;;11.75;nan
7105;BME280;3594;42.152;24.714;2023-02-23T09:16:11;-24143.84;;;11.70;nan
7105;BME280;3594;42.152;24.714;2023-02-23T09:18:37;-24140.59;;;11.59;nan
7105;BME280;3594;42.152;24.714;2023-02-23T09:21:04;-24140.59;;;11.59;nan
7105;BME280;3594;42.152;24.714;2023-02-23T09:23:35;-24148.78;;;11.88;nan
7105;BME280;3594;42.152;24.714;2023-02-23T09:26:05;-24153.69;;;12.06;nan
7105;BME280;3594;42.152;24.714;2023-02-23T09:28:31;-24153.13;;;12.04;nan
7105;BME280;3594;42.152;24.714;2023-02-23T09:31:04;-24154.41;;;12.08;nan
7105;BME280;3594;42.152;24.714;2023-02-23T09:33:31;-24165.94;;;12.50;nan
7105;BME280;3594;42.152;24.714;2023-02-23T09:35:56;-24158.06;;;12.21;nan
7105;BME280;3594;42.152;24.714;2023-02-23T09:38:22;-24160.47;;;12.30;nan
7105;BME280;3594;42.152;24.714;2023-02-23T09:40:50;-24153.56;;;12.05;nan
7105;BME280;3594;42.152;24.714;2023-02-23T09:48:36;-24158.78;;;12.24;nan
7105;BME280;3594;42.152;24.714;2023-02-23T09:51:05;-24161.03;;;12.32;nan
7105;BME280;3594;42.152;24.714;2023-02-23T09:53:38;-24157.91;;;12.21;nan
7105;BME280;3594;42.152;24.714;2023-02-23T09:56:12;-24150.75;;;11.95;nan
7105;BME280;3594;42.152;24.714;2023-02-23T09:58:40;-24150.88;;;11.95;nan
7105;BME280;3594;42.152;24.714;2023-02-23T10:04:06;-24149.91;;;11.92;nan
7105;BME280;3594;42.152;24.714;2023-02-23T10:06:36;-24160.03;;;12.28;nan
7105;BME280;3594;42.152;24.714;2023-02-23T10:14:44;-24179.44;;;12.98;nan
7105;BME280;3594;42.152;24.714;2023-02-23T10:17:24;-24178.19;;;12.94;nan
7105;BME280;3594;42.152;24.714;2023-02-23T10:22:33;-24172.97;;;12.75;nan
7105;BME280;3594;42.152;24.714;2023-02-23T10:25:06;-24166.50;;;12.52;nan
7105;BME280;3594;42.152;24.714;2023-02-23T10:27:38;-24170.31;;;12.65;nan
7105;BME280;3594;42.152;24.714;2023-02-23T10:30:27;-24188.44;;;13.31;nan
7105;BME280;3594;42.152;24.714;2023-02-23T10:35:27;-24177.63;;;12.92;nan
7105;BME280;3594;42.152;24.714;2023-02-23T10:37:53;-24176.34;;;12.87;nan
7105;BME280;3594;42.152;24.714;2023-02-23T10:40:22;-24189.56;;;13.35;nan
7105;BME280;3594;42.152;24.714;2023-02-23T10:42:49;-24189.28;;;13.34;nan
7105;BME280;3594;42.152;24.714;2023-02-23T10:45:17;-24191.81;;;13.43;nan
7105;BME280;3594;42.152;24.714;2023-02-23T10:47:54;-24207.25;;;13.98;nan
7105;BME280;3594;42.152;24.714;2023-02-23T10:50:22;-24208.25;;;14.02;nan
7105;BME280;3594;42.152;24.714;2023-02-23T10:52:54;-24196.03;;;13.58;nan
7105;BME280;3594;42.152;24.714;2023-02-23T10:55:25;-24200.25;;;13.73;nan
7105;BME280;3594;42.152;24.714;2023-02-23T10:58:01;-24192.09;;;13.44;nan
7105;BME280;3594;42.152;24.714;2023-02-23T11:00:31;-24191.66;;;13.42;nan
7105;BME280;3594;42.152;24.714;2023-02-23T11:03:00;-24206.56;;;13.96;nan
7105;BME280;3594;42.152;24.714;2023-02-23T11:05:43;-24200.94;;;13.76;nan
7105;BME280;3594;42.152;24.714;2023-02-23T11:13:41;-24205.56;;;13.92;nan
7105;BME280;3594;42.152;24.714;2023-02-23T11:16:13;-24200.53;;;13.74;nan
7105;BME280;3594;42.152;24.714;2023-02-23T11:18:43;-24194.47;;;13.52;nan
7105;BME280;3594;42.152;24.714;2023-02-23T11:21:21;-24196.16;;;13.58;nan
7105;BME280;3594;42.152;24.714;2023-02-23T11:23:50;-24204.16;;;13.87;nan
7105;BME280;3594;42.152;24.714;2023-02-23T11:26:37;-24202.19;;;13.80;nan
7105;BME280;3594;42.152;24.714;2023-02-23T11:31:55;-24187.88;;;13.28;nan
7105;BME280;3594;42.152;24.714;2023-02-23T11:34:33;-24190.56;;;13.38;nan
7105;BME280;3594;42.152;24.714;2023-02-23T11:37:06;-24205.16;;;13.91;nan
7105;BME280;3594;42.152;24.714;2023-02-23T11:39:33;-24202.34;;;13.81;nan
7105;BME280;3594;42.152;24.714;2023-02-23T11:44:36;-24200.25;;;13.73;nan
7105;BME280;3594;42.152;24.714;2023-02-23T11:47:02;-24193.78;;;13.50;nan
7105;BME280;3594;42.152;24.714;2023-02-23T11:49:30;-24205.72;;;13.93;nan
7105;BME280;3594;42.152;24.714;2023-02-23T11:51:58;-24208.38;;;14.02;nan
7105;BME280;3594;42.152;24.714;2023-02-23T11:54:28;-24196.59;;;13.60;nan
7105;BME280;3594;42.152;24.714;2023-02-23T11:56:54;-24190.41;;;13.38;nan
7105;BME280;3594;42.152;24.714;2023-02-23T11:59:33;-24193.34;;;13.48;nan
7105;BME280;3594;42.152;24.714;2023-02-23T12:02:24;-24205.00;;;13.90;nan
7105;BME280;3594;42.152;24.714;2023-02-23T12:05:05;-24195.59;;;13.56;nan
7105;BME280;3594;42.152;24.714;2023-02-23T12:13:15;-24203.47;;;13.85;nan
7105;BME280;3594;42.152;24.714;2023-02-23T12:15:49;-24194.47;;;13.52;nan
7105;BME280;3594;42.152;24.714;2023-02-23T12:18:39;-24204.44;;;13.88;nan
7105;BME280;3594;42.152;24.714;2023-02-23T12:21:23;-24205.28;;;13.91;nan
7105;BME280;3594;42.152;24.714;2023-02-23T12:26:34;-24202.91;;;13.83;nan
7105;BME280;3594;42.152;24.714;2023-02-23T12:29:30;-24213.72;;;14.22;nan
7105;BME280;3594;42.152;24.714;2023-02-23T12:32:00;-24204.72;;;13.89;nan
7105;BME280;3594;42.152;24.714;2023-02-23T12:34:35;-24206.13;;;13.94;nan
7105;BME280;3594;42.152;24.714;2023-02-23T12:37:35;-24206.56;;;13.96;nan
7105;BME280;3594;42.152;24.714;2023-02-23T12:40:25;-24200.09;;;13.73;nan
7105;BME280;3594;42.152;24.714;2023-02-23T12:43:00;-24193.22;;;13.48;nan
7105;BME280;3594;42.152;24.714;2023-02-23T12:51:34;-24191.13;;;13.40;nan
7105;BME280;3594;42.152;24.714;2023-02-23T12:54:01;-24187.88;;;13.28;nan
7105;BME280;3594;42.152;24.714;2023-02-23T13:06:56;-24201.22;;;13.77;nan
7105;BME280;3594;42.152;24.714;2023-02-23T13:17:37;-24192.94;;;13.47;nan
7105;BME280;3594;42.152;24.714;2023-02-23T13:23:04;-24188.16;;;13.30;nan
7105;BME280;3594;42.152;24.714;2023-02-23T13:25:56;-24189.84;;;13.36;nan
7105;BME280;3594;42.152;24.714;2023-02-23T13:28:38;-24190.56;;;13.38;nan
7105;BME280;3594;42.152;24.714;2023-02-23T13:31:16;-24177.34;;;12.91;nan
7105;BME280;3594;42.152;24.714;2023-02-23T13:33:43;-24179.72;;;12.99;nan
7105;BME280;3594;42.152;24.714;2023-02-23T13:36:09;-24176.91;;;12.89;nan
7105;BME280;3594;42.152;24.714;2023-02-23T13:38:43;-24185.22;;;13.19;nan
7105;BME280;3594;42.152;24.714;2023-02-23T13:41:26;-24177.75;;;12.92;nan
7105;BME280;3594;42.152;24.714;2023-02-23T13:47:08;-24180.28;;;13.01;nan
7105;BME280;3594;42.152;24.714;2023-02-23T13:50:15;-24178.19;;;12.94;nan
7105;BME280;3594;42.152;24.714;2023-02-23T13:52:43;-24170.16;;;12.65;nan
7105;BME280;3594;42.152;24.714;2023-02-23T13:58:05;-24161.44;;;12.33;nan
7105;BME280;3594;42.152;24.714;2023-02-23T14:00:35;-24163.84;;;12.42;nan
7105;BME280;3594;42.152;24.714;2023-02-23T14:03:03;-24165.09;;;12.47;nan
7105;BME280;3594;42.152;24.714;2023-02-23T14:05:30;-24155.81;;;12.13;nan
7105;BME280;3594;42.152;24.714;2023-02-23T14:08:06;-24159.19;;;12.25;nan
7105;BME280;3594;42.152;24.714;2023-02-23T14:10:37;-24149.91;;;11.92;nan
7105;BME280;3594;42.152;24.714;2023-02-23T14:20:43;-24146.66;;;11.80;nan
7105;BME280;3594;42.152;24.714;2023-02-23T14:23:14;-24142.84;;;11.67;nan
7105;BME280;3594;42.152;24.714;2023-02-23T14:25:44;-24148.06;;;11.85;nan
7105;BME280;3594;42.152;24.714;2023-02-23T14:33:56;-24140.31;;;11.58;nan
7105;BME280;3594;42.152;24.714;2023-02-23T14:44:18;-24142.16;;;11.64;nan
7105;BME280;3594;42.152;24.714;2023-02-23T14:47:19;-24137.63;;;11.48;nan
7105;BME280;3594;42.152;24.714;2023-02-23T14:49:53;-24138.34;;;11.50;nan
7105;BME280;3594;42.152;24.714;2023-02-23T14:52:25;-24130.75;;;11.23;nan
7105;BME280;3594;42.152;24.714;2023-02-23T14:57:42;-24132.44;;;11.29;nan
7105;BME280;3594;42.152;24.714;2023-02-23T15:03:00;-24137.50;;;11.47;nan
7105;BME280;3594;42.152;24.714;2023-02-23T15:05:32;-24131.88;;;11.27;nan
7105;BME280;3594;42.152;24.714;2023-02-23T15:08:00;-24129.34;;;11.18;nan
7105;BME280;3594;42.152;24.714;2023-02-23T15:10:32;-24134.97;;;11.38;nan
7105;BME280;3594;42.152;24.714;2023-02-23T15:12:59;-24119.75;;;10.84;nan
7105;BME280;3594;42.152;24.714;2023-02-23T15:15:26;-24113.25;;;10.60;nan
7105;BME280;3594;42.152;24.714;2023-02-23T15:17:57;-24125.81;;;11.05;nan
7105;BME280;3594;42.152;24.714;2023-02-23T15:20:32;-24121.72;;;10.91;nan
7105;BME280;3594;42.152;24.714;2023-02-23T15:23:01;-24118.19;;;10.78;nan
7105;BME280;3594;42.152;24.714;2023-02-23T15:25:38;-24106.91;;;10.38;nan
7105;BME280;3594;42.152;24.714;2023-02-23T15:30:46;-24113.13;;;10.60;nan
7105;BME280;3594;42.152;24.714;2023-02-23T15:33:13;-24111.28;;;10.53;nan
7105;BME280;3594;42.152;24.714;2023-02-23T15:35:46;-24110.16;;;10.49;nan
7105;BME280;3594;42.152;24.714;2023-02-23T15:38:19;-24110.72;;;10.51;nan
7105;BME280;3594;42.152;24.714;2023-02-23T15:40:51;-24102.53;;;10.22;nan
7105;BME280;3594;42.152;24.714;2023-02-23T15:43:18;-24112.41;;;10.57;nan
7105;BME280;3594;42.152;24.714;2023-02-23T15:45:51;-24101.41;;;10.18;nan
7105;BME280;3594;42.152;24.714;2023-02-23T15:48:21;-24109.59;;;10.47;nan
7105;BME280;3594;42.152;24.714;2023-02-23T15:50:51;-24100.69;;;10.15;nan
7105;BME280;3594;42.152;24.714;2023-02-23T15:56:01;-24101.81;;;10.19;nan
7105;BME280;3594;42.152;24.714;2023-02-23T15:58:30;-24107.47;;;10.40;nan
7105;BME280;3594;42.152;24.714;2023-02-23T16:01:09;-24104.06;;;10.28;nan
7105;BME280;3594;42.152;24.714;2023-02-23T16:03:38;-24100.84;;;10.16;nan
7105;BME280;3594;42.152;24.714;2023-02-23T16:06:22;-24108.47;;;10.43;nan
7105;BME280;3594;42.152;24.714;2023-02-23T16:11:44;-24088.97;;;9.73;nan